sensor_id;sensor_type;location;lat;lon;timestamp;pressure;altitude;pressure_sealevel;temperature;humidity
64025;BME280;50266;57.446;26.936;2022-12-16T00:00:04;98966.36;;;-8.58;100.0
64025;BME280;50266;57.446;26.936;2022-12-16T00:01:07;98970.8;;;-8.61;100.0
64025;BME280;50266;57.446;26.936;2022-12-16T00:02:04;98973.38;;;-8.63;100.0
64025;BME280;50266;57.446;26.936;2022-12-16T00:03:04;98980.34;;;-8.65;100.0
64025;BME280;50266;57.446;26.936;2022-12-16T00:04:04;98988.7;;;-8.67;100.0
64025;BME280;50266;57.446;26.936;2022-12-16T00:05:04;98985.81;;;-8.67;100.0
64025;BME280;50266;57.446;26.936;2022-12-16T00:06:06;98987.69;;;-8.66;100.0
64025;BME280;50266;57.446;26.936;2022-12-16T00:07:04;98988.94;;;-8.62;100.0
64025;BME280;50266;57.446;26.936;2022-12-16T00:08:04;98994.92;;;-8.54;100.0
64025;BME280;50266;57.446;26.936;2022-12-16T00:09:04;98992.82;;;-8.56;100.0
64025;BME280;50266;57.446;26.936;2022-12-16T00:10:04;98995.49;;;-8.6;100.0
64025;BME280;50266;57.446;26.936;2022-12-16T00:11:04;98998.07;;;-8.59;100.0
64025;BME280;50266;57.446;26.936;2022-12-16T00:12:04;99003.76;;;-8.59;100.0
64025;BME280;50266;57.446;26.936;2022-12-16T00:13:04;99005.22;;;-8.57;100.0
64025;BME280;50266;57.446;26.936;2022-12-16T00:14:05;99010.09;;;-8.58;100.0
64025;BME280;50266;57.446;26.936;2022-12-16T00:15:06;99010.96;;;-8.55;100.0
64025;BME280;50266;57.446;26.936;2022-12-16T00:16:07;99009.77;;;-8.49;100.0
64025;BME280;50266;57.446;26.936;2022-12-16T00:17:05;99011.22;;;-8.46;100.0
64025;BME280;50266;57.446;26.936;2022-12-16T00:18:05;99015.8;;;-8.43;100.0
64025;BME280;50266;57.446;26.936;2022-12-16T00:19:05;99013.48;;;-8.46;100.0
64025;BME280;50266;57.446;26.936;2022-12-16T00:20:06;99014.28;;;-8.45;100.0
64025;BME280;50266;57.446;26.936;2022-12-16T00:21:06;99019.16;;;-8.5;100.0
64025;BME280;50266;57.446;26.936;2022-12-16T00:22:06;99016.26;;;-8.5;100.0
64025;BME280;50266;57.446;26.936;2022-12-16T00:23:06;99014.45;;;-8.55;100.0
64025;BME280;50266;57.446;26.936;2022-12-16T00:24:06;99016.53;;;-8.48;100.0
64025;BME280;50266;57.446;26.936;2022-12-16T00:25:06;99016.06;;;-8.42;100.0
64025;BME280;50266;57.446;26.936;2022-12-16T00:26:06;99015.59;;;-8.39;100.0
64025;BME280;50266;57.446;26.936;2022-12-16T00:27:06;99014.98;;;-8.46;100.0
64025;BME280;50266;57.446;26.936;2022-12-16T00:28:06;99016.8;;;-8.47;100.0
64025;BME280;50266;57.446;26.936;2022-12-16T00:29:06;99022.33;;;-8.46;100.0
64025;BME280;50266;57.446;26.936;2022-12-16T00:30:06;99018.95;;;-8.48;100.0
64025;BME280;50266;57.446;26.936;2022-12-16T00:31:06;99026.75;;;-8.51;100.0
64025;BME280;50266;57.446;26.936;2022-12-16T00:32:06;99029.25;;;-8.48;100.0
64025;BME280;50266;57.446;26.936;2022-12-16T00:33:06;99029.8;;;-8.46;100.0
64025;BME280;50266;57.446;26.936;2022-12-16T00:34:06;99026.05;;;-8.44;100.0
64025;BME280;50266;57.446;26.936;2022-12-16T00:35:06;99026.52;;;-8.45;100.0
64025;BME280;50266;57.446;26.936;2022-12-16T00:36:06;99021.38;;;-8.4;100.0
64025;BME280;50266;57.446;26.936;2022-12-16T00:37:06;99024.66;;;-8.38;100.0
64025;BME280;50266;57.446;26.936;2022-12-16T00:38:06;99023.49;;;-8.34;100.0
64025;BME280;50266;57.446;26.936;2022-12-16T00:39:06;99025.31;;;-8.39;100.0
64025;BME280;50266;57.446;26.936;2022-12-16T00:40:06;99020.35;;;-8.44;100.0
64025;BME280;50266;57.446;26.936;2022-12-16T00:41:06;99023.69;;;-8.4;100.0
64025;BME280;50266;57.446;26.936;2022-12-16T00:42:06;99026.47;;;-8.45;100.0
64025;BME280;50266;57.446;26.936;2022-12-16T00:43:06;99019.39;;;-8.42;100.0
64025;BME280;50266;57.446;26.936;2022-12-16T00:44:06;99021.55;;;-8.37;100.0
64025;BME280;50266;57.446;26.936;2022-12-16T00:45:06;99022.73;;;-8.37;100.0
64025;BME280;50266;57.446;26.936;2022-12-16T00:46:06;99025.16;;;-8.36;100.0
64025;BME280;50266;57.446;26.936;2022-12-16T00:47:06;99027.41;;;-8.34;100.0
64025;BME280;50266;57.446;26.936;2022-12-16T00:48:06;99030.05;;;-8.32;100.0
64025;BME280;50266;57.446;26.936;2022-12-16T00:49:06;99023.98;;;-8.33;100.0
64025;BME280;50266;57.446;26.936;2022-12-16T00:50:06;99023.88;;;-8.31;100.0
64025;BME280;50266;57.446;26.936;2022-12-16T00:51:06;99026.98;;;-8.31;100.0
64025;BME280;50266;57.446;26.936;2022-12-16T00:52:06;99027.36;;;-8.3;100.0
64025;BME280;50266;57.446;26.936;2022-12-16T00:53:06;99028.69;;;-8.37;100.0
64025;BME280;50266;57.446;26.936;2022-12-16T00:54:06;99020.85;;;-8.38;100.0
64025;BME280;50266;57.446;26.936;2022-12-16T00:55:06;99021.97;;;-8.43;100.0
64025;BME280;50266;57.446;26.936;2022-12-16T00:56:07;99023.58;;;-8.41;100.0
64025;BME280;50266;57.446;26.936;2022-12-16T00:57:06;99024.03;;;-8.35;100.0
64025;BME280;50266;57.446;26.936;2022-12-16T00:58:06;99028.0;;;-8.32;100.0
64025;BME280;50266;57.446;26.936;2022-12-16T00:59:06;99030.79;;;-8.35;100.0
64025;BME280;50266;57.446;26.936;2022-12-16T01:00:07;99030.27;;;-8.31;100.0
64025;BME280;50266;57.446;26.936;2022-12-16T01:01:06;99029.33;;;-8.39;100.0
64025;BME280;50266;57.446;26.936;2022-12-16T01:02:06;99024.56;;;-8.36;100.0
64025;BME280;50266;57.446;26.936;2022-12-16T01:03:06;99026.44;;;-8.38;100.0
64025;BME280;50266;57.446;26.936;2022-12-16T01:04:06;99029.39;;;-8.39;100.0
64025;BME280;50266;57.446;26.936;2022-12-16T01:05:09;99029.33;;;-8.43;100.0
64025;BME280;50266;57.446;26.936;2022-12-16T01:06:08;99030.95;;;-8.37;100.0
64025;BME280;50266;57.446;26.936;2022-12-16T01:07:07;99028.8;;;-8.36;100.0
64025;BME280;50266;57.446;26.936;2022-12-16T01:08:06;99028.8;;;-8.38;100.0
64025;BME280;50266;57.446;26.936;2022-12-16T01:09:06;99026.31;;;-8.43;100.0
64025;BME280;50266;57.446;26.936;2022-12-16T01:10:07;99026.27;;;-8.39;100.0
64025;BME280;50266;57.446;26.936;2022-12-16T01:11:08;99028.52;;;-8.41;100.0
64025;BME280;50266;57.446;26.936;2022-12-16T01:12:06;99028.05;;;-8.38;100.0
64025;BME280;50266;57.446;26.936;2022-12-16T01:13:06;99030.1;;;-8.32;100.0
64025;BME280;50266;57.446;26.936;2022-12-16T01:14:06;99029.94;;;-8.33;100.0
64025;BME280;50266;57.446;26.936;2022-12-16T01:15:07;99036.09;;;-8.37;100.0
64025;BME280;50266;57.446;26.936;2022-12-16T01:16:06;99033.47;;;-8.39;100.0
64025;BME280;50266;57.446;26.936;2022-12-16T01:17:06;99034.28;;;-8.36;100.0
64025;BME280;50266;57.446;26.936;2022-12-16T01:18:06;99034.51;;;-8.31;100.0
64025;BME280;50266;57.446;26.936;2022-12-16T01:19:06;99034.45;;;-8.29;100.0
64025;BME280;50266;57.446;26.936;2022-12-16T01:20:07;99037.61;;;-8.29;100.0
64025;BME280;50266;57.446;26.936;2022-12-16T01:21:07;99035.25;;;-8.28;100.0
64025;BME280;50266;57.446;26.936;2022-12-16T01:22:06;99042.38;;;-8.38;100.0
64025;BME280;50266;57.446;26.936;2022-12-16T01:23:07;99048.19;;;-8.36;100.0
64025;BME280;50266;57.446;26.936;2022-12-16T01:24:07;99041.91;;;-8.32;100.0
64025;BME280;50266;57.446;26.936;2022-12-16T01:25:07;99042.55;;;-8.28;100.0
64025;BME280;50266;57.446;26.936;2022-12-16T01:26:08;99044.48;;;-8.32;100.0
64025;BME280;50266;57.446;26.936;2022-12-16T01:27:08;99049.54;;;-8.31;100.0
64025;BME280;50266;57.446;26.936;2022-12-16T01:28:08;99044.2;;;-8.37;100.0
64025;BME280;50266;57.446;26.936;2022-12-16T01:29:08;99043.29;;;-8.39;100.0
64025;BME280;50266;57.446;26.936;2022-12-16T01:30:09;99042.21;;;-8.41;100.0
64025;BME280;50266;57.446;26.936;2022-12-16T01:31:08;99045.7;;;-8.42;100.0
64025;BME280;50266;57.446;26.936;2022-12-16T01:32:11;99046.62;;;-8.37;100.0
64025;BME280;50266;57.446;26.936;2022-12-16T01:33:08;99045.77;;;-8.36;100.0
64025;BME280;50266;57.446;26.936;2022-12-16T01:34:08;99045.12;;;-8.37;100.0
64025;BME280;50266;57.446;26.936;2022-12-16T01:35:08;99050.08;;;-8.32;100.0
64025;BME280;50266;57.446;26.936;2022-12-16T01:36:10;99046.09;;;-8.29;100.0
64025;BME280;50266;57.446;26.936;2022-12-16T01:37:10;99046.36;;;-8.29;100.0
64025;BME280;50266;57.446;26.936;2022-12-16T01:38:10;99047.88;;;-8.28;100.0
64025;BME280;50266;57.446;26.936;2022-12-16T01:39:10;99046.42;;;-8.29;100.0
64025;BME280;50266;57.446;26.936;2022-12-16T01:40:17;99045.5;;;-8.28;100.0
64025;BME280;50266;57.446;26.936;2022-12-16T01:41:14;99042.78;;;-8.24;100.0
64025;BME280;50266;57.446;26.936;2022-12-16T01:42:14;99044.66;;;-8.25;100.0
64025;BME280;50266;57.446;26.936;2022-12-16T01:43:21;99043.53;;;-8.26;100.0
64025;BME280;50266;57.446;26.936;2022-12-16T01:44:19;99045.14;;;-8.31;100.0
64025;BME280;50266;57.446;26.936;2022-12-16T01:46:21;99053.36;;;-8.25;100.0
64025;BME280;50266;57.446;26.936;2022-12-16T01:47:27;99052.65;;;-8.28;100.0
64025;BME280;50266;57.446;26.936;2022-12-16T01:48:23;99052.55;;;-8.25;100.0
64025;BME280;50266;57.446;26.936;2022-12-16T01:49:40;99051.25;;;-8.35;100.0
64025;BME280;50266;57.446;26.936;2022-12-16T01:50:23;99049.84;;;-8.38;100.0
64025;BME280;50266;57.446;26.936;2022-12-16T01:51:35;99046.75;;;-8.31;100.0
64025;BME280;50266;57.446;26.936;2022-12-16T01:52:29;99049.42;;;-8.33;100.0
64025;BME280;50266;57.446;26.936;2022-12-16T01:53:28;99048.86;;;-8.42;100.0
64025;BME280;50266;57.446;26.936;2022-12-16T01:54:28;99047.11;;;-8.36;100.0
64025;BME280;50266;57.446;26.936;2022-12-16T01:55:30;99048.34;;;-8.35;100.0
64025;BME280;50266;57.446;26.936;2022-12-16T01:56:29;99051.29;;;-8.38;100.0
64025;BME280;50266;57.446;26.936;2022-12-16T01:57:29;99053.2;;;-8.44;100.0
64025;BME280;50266;57.446;26.936;2022-12-16T01:58:29;99050.95;;;-8.42;100.0
64025;BME280;50266;57.446;26.936;2022-12-16T01:59:28;99056.02;;;-8.38;100.0
64025;BME280;50266;57.446;26.936;2022-12-16T02:00:28;99051.34;;;-8.37;100.0
64025;BME280;50266;57.446;26.936;2022-12-16T02:01:28;99053.46;;;-8.31;100.0
64025;BME280;50266;57.446;26.936;2022-12-16T02:02:28;99060.41;;;-8.3;100.0
64025;BME280;50266;57.446;26.936;2022-12-16T02:03:29;99063.92;;;-8.27;100.0
64025;BME280;50266;57.446;26.936;2022-12-16T02:04:28;99060.87;;;-8.32;100.0
64025;BME280;50266;57.446;26.936;2022-12-16T02:05:28;99062.2;;;-8.3;100.0
64025;BME280;50266;57.446;26.936;2022-12-16T02:06:28;99065.27;;;-8.34;100.0
64025;BME280;50266;57.446;26.936;2022-12-16T02:07:28;99068.86;;;-8.35;100.0
64025;BME280;50266;57.446;26.936;2022-12-16T02:08:28;99072.68;;;-8.32;100.0
64025;BME280;50266;57.446;26.936;2022-12-16T02:09:28;99073.43;;;-8.32;100.0
64025;BME280;50266;57.446;26.936;2022-12-16T02:12:46;99082.06;;;-8.51;100.0
64025;BME280;50266;57.446;26.936;2022-12-16T02:13:51;99082.22;;;-8.51;100.0
64025;BME280;50266;57.446;26.936;2022-12-16T02:15:46;99081.31;;;-8.5;100.0
64025;BME280;50266;57.446;26.936;2022-12-16T02:17:08;99080.61;;;-8.6;100.0
64025;BME280;50266;57.446;26.936;2022-12-16T02:18:13;99080.7;;;-8.61;100.0
64025;BME280;50266;57.446;26.936;2022-12-16T02:22:06;99085.33;;;-8.7;100.0
64025;BME280;50266;57.446;26.936;2022-12-16T02:23:20;99090.08;;;-8.74;100.0
64025;BME280;50266;57.446;26.936;2022-12-16T02:27:21;99088.34;;;-8.69;100.0
64025;BME280;50266;57.446;26.936;2022-12-16T02:31:27;99086.52;;;-8.69;100.0
64025;BME280;50266;57.446;26.936;2022-12-16T02:32:25;99084.77;;;-8.65;100.0
64025;BME280;50266;57.446;26.936;2022-12-16T02:34:29;99078.0;;;-8.74;100.0
64025;BME280;50266;57.446;26.936;2022-12-16T02:36:39;99084.64;;;-8.75;100.0
64025;BME280;50266;57.446;26.936;2022-12-16T02:37:35;99089.58;;;-8.68;100.0
64025;BME280;50266;57.446;26.936;2022-12-16T02:39:37;99087.55;;;-8.75;100.0
64025;BME280;50266;57.446;26.936;2022-12-16T02:40:54;99094.73;;;-8.7;100.0
64025;BME280;50266;57.446;26.936;2022-12-16T02:41:56;99096.19;;;-8.74;100.0
64025;BME280;50266;57.446;26.936;2022-12-16T02:42:44;99095.11;;;-8.75;100.0
64025;BME280;50266;57.446;26.936;2022-12-16T02:43:58;99099.57;;;-8.68;100.0
64025;BME280;50266;57.446;26.936;2022-12-16T02:44:53;99098.28;;;-8.73;100.0
64025;BME280;50266;57.446;26.936;2022-12-16T02:45:47;99101.34;;;-8.72;100.0
64025;BME280;50266;57.446;26.936;2022-12-16T02:46:54;99101.2;;;-8.63;100.0
64025;BME280;50266;57.446;26.936;2022-12-16T02:47:51;99106.92;;;-8.67;100.0
64025;BME280;50266;57.446;26.936;2022-12-16T02:48:51;99104.98;;;-8.67;100.0
64025;BME280;50266;57.446;26.936;2022-12-16T02:49:51;99109.17;;;-8.75;100.0
64025;BME280;50266;57.446;26.936;2022-12-16T02:50:51;99115.08;;;-8.74;100.0
64025;BME280;50266;57.446;26.936;2022-12-16T02:51:51;99113.61;;;-8.7;100.0
64025;BME280;50266;57.446;26.936;2022-12-16T02:52:51;99115.56;;;-8.72;100.0
64025;BME280;50266;57.446;26.936;2022-12-16T02:53:51;99109.78;;;-8.81;100.0
64025;BME280;50266;57.446;26.936;2022-12-16T02:54:55;99110.3;;;-8.74;100.0
64025;BME280;50266;57.446;26.936;2022-12-16T02:57:00;99107.01;;;-8.78;100.0
64025;BME280;50266;57.446;26.936;2022-12-16T02:58:09;99104.09;;;-8.8;100.0
64025;BME280;50266;57.446;26.936;2022-12-16T02:59:07;99108.75;;;-8.82;100.0
64025;BME280;50266;57.446;26.936;2022-12-16T03:00:08;99109.22;;;-8.85;100.0
64025;BME280;50266;57.446;26.936;2022-12-16T03:01:21;99109.59;;;-8.84;100.0
64025;BME280;50266;57.446;26.936;2022-12-16T03:02:11;99104.44;;;-8.87;100.0
64025;BME280;50266;57.446;26.936;2022-12-16T03:03:13;99108.09;;;-8.85;100.0
64025;BME280;50266;57.446;26.936;2022-12-16T03:04:20;99107.78;;;-8.92;100.0
64025;BME280;50266;57.446;26.936;2022-12-16T03:05:15;99109.71;;;-8.98;100.0
64025;BME280;50266;57.446;26.936;2022-12-16T03:06:16;99111.89;;;-9.02;100.0
64025;BME280;50266;57.446;26.936;2022-12-16T03:07:16;99115.51;;;-8.97;100.0
64025;BME280;50266;57.446;26.936;2022-12-16T03:08:24;99126.0;;;-8.99;100.0
64025;BME280;50266;57.446;26.936;2022-12-16T03:09:18;99121.16;;;-9.02;100.0
64025;BME280;50266;57.446;26.936;2022-12-16T03:10:18;99126.7;;;-9.0;100.0
64025;BME280;50266;57.446;26.936;2022-12-16T03:11:17;99128.63;;;-9.0;100.0
64025;BME280;50266;57.446;26.936;2022-12-16T03:12:17;99124.99;;;-8.98;100.0
64025;BME280;50266;57.446;26.936;2022-12-16T03:13:18;99125.17;;;-8.95;100.0
64025;BME280;50266;57.446;26.936;2022-12-16T03:14:17;99123.37;;;-8.93;100.0
64025;BME280;50266;57.446;26.936;2022-12-16T03:15:18;99126.52;;;-8.95;100.0
64025;BME280;50266;57.446;26.936;2022-12-16T03:16:18;99124.65;;;-8.88;100.0
64025;BME280;50266;57.446;26.936;2022-12-16T03:17:17;99128.52;;;-8.86;100.0
64025;BME280;50266;57.446;26.936;2022-12-16T03:18:17;99131.75;;;-8.85;100.0
64025;BME280;50266;57.446;26.936;2022-12-16T03:19:17;99126.25;;;-8.89;100.0
64025;BME280;50266;57.446;26.936;2022-12-16T03:20:19;99129.38;;;-8.87;100.0
64025;BME280;50266;57.446;26.936;2022-12-16T03:21:18;99127.61;;;-8.86;100.0
64025;BME280;50266;57.446;26.936;2022-12-16T03:22:20;99126.47;;;-8.8;100.0
64025;BME280;50266;57.446;26.936;2022-12-16T03:23:19;99130.72;;;-8.87;100.0
64025;BME280;50266;57.446;26.936;2022-12-16T03:24:18;99133.44;;;-8.81;100.0
64025;BME280;50266;57.446;26.936;2022-12-16T03:25:19;99131.08;;;-8.8;100.0
64025;BME280;50266;57.446;26.936;2022-12-16T03:26:20;99132.62;;;-8.83;100.0
64025;BME280;50266;57.446;26.936;2022-12-16T03:27:20;99127.02;;;-8.86;100.0
64025;BME280;50266;57.446;26.936;2022-12-16T03:28:27;99129.94;;;-8.83;100.0
64025;BME280;50266;57.446;26.936;2022-12-16T03:30:27;99140.67;;;-8.82;100.0
64025;BME280;50266;57.446;26.936;2022-12-16T03:31:30;99145.02;;;-8.96;100.0
64025;BME280;50266;57.446;26.936;2022-12-16T03:32:37;99147.8;;;-8.96;100.0
64025;BME280;50266;57.446;26.936;2022-12-16T03:34:35;99152.2;;;-8.95;100.0
64025;BME280;50266;57.446;26.936;2022-12-16T03:35:43;99149.2;;;-8.91;100.0
64025;BME280;50266;57.446;26.936;2022-12-16T03:36:38;99147.23;;;-8.89;100.0
64025;BME280;50266;57.446;26.936;2022-12-16T03:37:38;99152.75;;;-8.89;100.0
64025;BME280;50266;57.446;26.936;2022-12-16T03:38:38;99153.44;;;-8.96;100.0
64025;BME280;50266;57.446;26.936;2022-12-16T03:39:41;99157.08;;;-8.91;100.0
64025;BME280;50266;57.446;26.936;2022-12-16T03:40:40;99153.02;;;-8.9;100.0
64025;BME280;50266;57.446;26.936;2022-12-16T03:41:38;99154.45;;;-8.95;100.0
64025;BME280;50266;57.446;26.936;2022-12-16T03:42:38;99157.94;;;-8.96;100.0
64025;BME280;50266;57.446;26.936;2022-12-16T03:43:38;99162.66;;;-8.96;100.0
64025;BME280;50266;57.446;26.936;2022-12-16T03:44:39;99164.39;;;-8.94;100.0
64025;BME280;50266;57.446;26.936;2022-12-16T03:45:39;99172.26;;;-8.92;100.0
64025;BME280;50266;57.446;26.936;2022-12-16T03:46:38;99173.67;;;-8.94;100.0
64025;BME280;50266;57.446;26.936;2022-12-16T03:47:38;99172.66;;;-8.93;100.0
64025;BME280;50266;57.446;26.936;2022-12-16T03:48:44;99174.59;;;-8.99;100.0
64025;BME280;50266;57.446;26.936;2022-12-16T03:49:40;99181.62;;;-8.99;100.0
64025;BME280;50266;57.446;26.936;2022-12-16T03:50:40;99182.22;;;-8.98;100.0
64025;BME280;50266;57.446;26.936;2022-12-16T03:51:40;99179.8;;;-9.0;100.0
64025;BME280;50266;57.446;26.936;2022-12-16T03:52:40;99184.12;;;-9.02;100.0
64025;BME280;50266;57.446;26.936;2022-12-16T03:53:40;99189.8;;;-8.97;100.0
64025;BME280;50266;57.446;26.936;2022-12-16T03:54:40;99192.52;;;-8.99;100.0
64025;BME280;50266;57.446;26.936;2022-12-16T03:55:40;99194.97;;;-9.01;100.0
64025;BME280;50266;57.446;26.936;2022-12-16T03:56:40;99187.93;;;-8.95;100.0
64025;BME280;50266;57.446;26.936;2022-12-16T03:57:40;99190.25;;;-9.0;100.0
64025;BME280;50266;57.446;26.936;2022-12-16T03:58:40;99187.45;;;-9.03;100.0
64025;BME280;50266;57.446;26.936;2022-12-16T03:59:40;99189.91;;;-8.96;100.0
64025;BME280;50266;57.446;26.936;2022-12-16T04:00:40;99190.55;;;-9.03;100.0
64025;BME280;50266;57.446;26.936;2022-12-16T04:01:40;99197.57;;;-9.04;100.0
64025;BME280;50266;57.446;26.936;2022-12-16T04:02:41;99194.77;;;-9.05;100.0
64025;BME280;50266;57.446;26.936;2022-12-16T04:03:40;99201.53;;;-9.05;100.0
64025;BME280;50266;57.446;26.936;2022-12-16T04:04:40;99196.86;;;-9.05;100.0
64025;BME280;50266;57.446;26.936;2022-12-16T04:05:40;99199.76;;;-9.05;100.0
64025;BME280;50266;57.446;26.936;2022-12-16T04:06:40;99205.0;;;-9.07;100.0
64025;BME280;50266;57.446;26.936;2022-12-16T04:07:40;99209.58;;;-9.05;100.0
64025;BME280;50266;57.446;26.936;2022-12-16T04:08:40;99210.27;;;-9.06;100.0
64025;BME280;50266;57.446;26.936;2022-12-16T04:09:40;99214.83;;;-9.05;100.0
64025;BME280;50266;57.446;26.936;2022-12-16T04:10:40;99215.44;;;-9.03;100.0
64025;BME280;50266;57.446;26.936;2022-12-16T04:11:41;99218.95;;;-9.12;100.0
64025;BME280;50266;57.446;26.936;2022-12-16T04:12:40;99224.52;;;-9.07;100.0
64025;BME280;50266;57.446;26.936;2022-12-16T04:13:40;99225.03;;;-9.09;100.0
64025;BME280;50266;57.446;26.936;2022-12-16T04:14:40;99220.78;;;-9.11;100.0
64025;BME280;50266;57.446;26.936;2022-12-16T04:15:40;99221.64;;;-9.05;100.0
64025;BME280;50266;57.446;26.936;2022-12-16T04:16:41;99225.78;;;-9.1;100.0
64025;BME280;50266;57.446;26.936;2022-12-16T04:17:41;99225.84;;;-9.09;100.0
64025;BME280;50266;57.446;26.936;2022-12-16T04:18:41;99225.06;;;-9.13;100.0
64025;BME280;50266;57.446;26.936;2022-12-16T04:19:41;99229.89;;;-9.13;100.0
64025;BME280;50266;57.446;26.936;2022-12-16T04:20:48;99234.06;;;-9.07;100.0
64025;BME280;50266;57.446;26.936;2022-12-16T04:21:45;99240.61;;;-9.17;100.0
64025;BME280;50266;57.446;26.936;2022-12-16T04:22:45;99237.94;;;-9.22;100.0
64025;BME280;50266;57.446;26.936;2022-12-16T04:23:46;99243.31;;;-9.26;100.0
64025;BME280;50266;57.446;26.936;2022-12-16T04:24:45;99242.77;;;-9.21;100.0
64025;BME280;50266;57.446;26.936;2022-12-16T04:25:45;99244.21;;;-9.21;100.0
64025;BME280;50266;57.446;26.936;2022-12-16T04:26:45;99246.81;;;-9.24;100.0
64025;BME280;50266;57.446;26.936;2022-12-16T04:27:45;99242.38;;;-9.28;100.0
64025;BME280;50266;57.446;26.936;2022-12-16T04:28:45;99242.11;;;-9.28;100.0
64025;BME280;50266;57.446;26.936;2022-12-16T04:29:45;99243.17;;;-9.23;100.0
64025;BME280;50266;57.446;26.936;2022-12-16T04:30:45;99245.84;;;-9.19;100.0
64025;BME280;50266;57.446;26.936;2022-12-16T04:31:45;99243.8;;;-9.31;100.0
64025;BME280;50266;57.446;26.936;2022-12-16T04:32:55;99244.84;;;-9.33;100.0
64025;BME280;50266;57.446;26.936;2022-12-16T04:33:47;99243.35;;;-9.33;100.0
64025;BME280;50266;57.446;26.936;2022-12-16T04:34:47;99242.55;;;-9.32;100.0
64025;BME280;50266;57.446;26.936;2022-12-16T04:35:47;99245.89;;;-9.31;100.0
64025;BME280;50266;57.446;26.936;2022-12-16T04:36:47;99246.88;;;-9.28;100.0
64025;BME280;50266;57.446;26.936;2022-12-16T04:37:47;99251.47;;;-9.31;100.0
64025;BME280;50266;57.446;26.936;2022-12-16T04:38:47;99249.42;;;-9.34;100.0
64025;BME280;50266;57.446;26.936;2022-12-16T04:39:47;99247.29;;;-9.3;100.0
64025;BME280;50266;57.446;26.936;2022-12-16T04:40:47;99249.57;;;-9.36;100.0
64025;BME280;50266;57.446;26.936;2022-12-16T04:41:50;99255.08;;;-9.34;100.0
64025;BME280;50266;57.446;26.936;2022-12-16T04:42:47;99254.7;;;-9.33;100.0
64025;BME280;50266;57.446;26.936;2022-12-16T04:43:47;99260.27;;;-9.39;100.0
64025;BME280;50266;57.446;26.936;2022-12-16T04:44:47;99258.67;;;-9.37;100.0
64025;BME280;50266;57.446;26.936;2022-12-16T04:45:47;99266.91;;;-9.39;100.0
64025;BME280;50266;57.446;26.936;2022-12-16T04:46:47;99266.56;;;-9.46;100.0
64025;BME280;50266;57.446;26.936;2022-12-16T04:47:47;99270.73;;;-9.47;100.0
64025;BME280;50266;57.446;26.936;2022-12-16T04:48:50;99272.83;;;-9.51;100.0
64025;BME280;50266;57.446;26.936;2022-12-16T04:49:50;99272.54;;;-9.44;100.0
64025;BME280;50266;57.446;26.936;2022-12-16T04:50:50;99275.43;;;-9.39;100.0
64025;BME280;50266;57.446;26.936;2022-12-16T04:51:50;99272.03;;;-9.46;100.0
64025;BME280;50266;57.446;26.936;2022-12-16T04:52:51;99277.52;;;-9.4;100.0
64025;BME280;50266;57.446;26.936;2022-12-16T04:53:50;99284.02;;;-9.43;100.0
64025;BME280;50266;57.446;26.936;2022-12-16T04:54:50;99286.45;;;-9.41;100.0
64025;BME280;50266;57.446;26.936;2022-12-16T04:55:50;99290.69;;;-9.41;100.0
64025;BME280;50266;57.446;26.936;2022-12-16T04:56:51;99289.2;;;-9.45;100.0
64025;BME280;50266;57.446;26.936;2022-12-16T04:57:51;99293.05;;;-9.4;100.0
64025;BME280;50266;57.446;26.936;2022-12-16T04:58:51;99294.3;;;-9.38;100.0
64025;BME280;50266;57.446;26.936;2022-12-16T04:59:51;99291.22;;;-9.41;100.0
64025;BME280;50266;57.446;26.936;2022-12-16T05:00:51;99289.52;;;-9.5;100.0
64025;BME280;50266;57.446;26.936;2022-12-16T05:01:51;99286.94;;;-9.46;100.0
64025;BME280;50266;57.446;26.936;2022-12-16T05:02:51;99289.02;;;-9.46;100.0
64025;BME280;50266;57.446;26.936;2022-12-16T05:03:51;99291.06;;;-9.5;100.0
64025;BME280;50266;57.446;26.936;2022-12-16T05:04:51;99290.92;;;-9.53;100.0
64025;BME280;50266;57.446;26.936;2022-12-16T05:05:51;99296.33;;;-9.57;100.0
64025;BME280;50266;57.446;26.936;2022-12-16T05:06:51;99285.75;;;-9.58;100.0
64025;BME280;50266;57.446;26.936;2022-12-16T05:07:51;99288.28;;;-9.54;100.0
64025;BME280;50266;57.446;26.936;2022-12-16T05:08:51;99286.61;;;-9.58;100.0
64025;BME280;50266;57.446;26.936;2022-12-16T05:09:51;99290.33;;;-9.61;100.0
64025;BME280;50266;57.446;26.936;2022-12-16T05:10:51;99284.98;;;-9.61;100.0
64025;BME280;50266;57.446;26.936;2022-12-16T05:11:51;99289.46;;;-9.62;100.0
64025;BME280;50266;57.446;26.936;2022-12-16T05:12:52;99293.36;;;-9.68;100.0
64025;BME280;50266;57.446;26.936;2022-12-16T05:13:51;99294.48;;;-9.68;100.0
64025;BME280;50266;57.446;26.936;2022-12-16T05:14:51;99302.09;;;-9.63;100.0
64025;BME280;50266;57.446;26.936;2022-12-16T05:15:51;99306.66;;;-9.62;100.0
64025;BME280;50266;57.446;26.936;2022-12-16T05:16:53;99313.81;;;-9.6;100.0
64025;BME280;50266;57.446;26.936;2022-12-16T05:17:51;99313.88;;;-9.6;100.0
64025;BME280;50266;57.446;26.936;2022-12-16T05:18:52;99315.58;;;-9.6;100.0
64025;BME280;50266;57.446;26.936;2022-12-16T05:19:52;99322.34;;;-9.59;100.0
64025;BME280;50266;57.446;26.936;2022-12-16T05:20:52;99322.72;;;-9.63;100.0
64025;BME280;50266;57.446;26.936;2022-12-16T05:21:52;99322.78;;;-9.62;100.0
64025;BME280;50266;57.446;26.936;2022-12-16T05:22:54;99320.88;;;-9.6;100.0
64025;BME280;50266;57.446;26.936;2022-12-16T05:23:52;99323.89;;;-9.59;100.0
64025;BME280;50266;57.446;26.936;2022-12-16T05:24:52;99322.26;;;-9.57;100.0
64025;BME280;50266;57.446;26.936;2022-12-16T05:25:52;99319.05;;;-9.65;100.0
64025;BME280;50266;57.446;26.936;2022-12-16T05:26:52;99321.11;;;-9.64;100.0
64025;BME280;50266;57.446;26.936;2022-12-16T05:27:52;99324.8;;;-9.6;100.0
64025;BME280;50266;57.446;26.936;2022-12-16T05:28:52;99323.92;;;-9.62;100.0
64025;BME280;50266;57.446;26.936;2022-12-16T05:29:52;99326.64;;;-9.62;100.0
64025;BME280;50266;57.446;26.936;2022-12-16T05:30:52;99328.45;;;-9.67;100.0
64025;BME280;50266;57.446;26.936;2022-12-16T05:31:52;99326.21;;;-9.67;100.0
64025;BME280;50266;57.446;26.936;2022-12-16T05:32:52;99332.8;;;-9.67;100.0
64025;BME280;50266;57.446;26.936;2022-12-16T05:33:52;99330.09;;;-9.69;100.0
64025;BME280;50266;57.446;26.936;2022-12-16T05:34:52;99338.38;;;-9.62;100.0
64025;BME280;50266;57.446;26.936;2022-12-16T05:35:52;99336.8;;;-9.68;100.0